TimeCET,TemperatureF,Dew PointF,Humidity,Sea Level PressureIn,VisibilityMPH,Wind Direction,Wind SpeedMPH,Gust SpeedMPH,PrecipitationIn,Events,Conditions,WindDirDegrees,DateUTC
12:55 AM,15.8,-4.0,41,29.42,-9999.0,East,4.6,-,N/A,,Clear,80,2012-12-05 23:55:00
1:00 AM,16,-4,25,,37,East,4.6,,,,,80,2012-12-06 00:00:00
1:55 AM,15.8,-2.2,45,29.44,-9999.0,Calm,Calm,-,N/A,,Clear,0,2012-12-06 00:55:00
2:55 AM,15.8,-4.0,41,29.42,-9999.0,Calm,Calm,-,N/A,,Clear,0,2012-12-06 01:55:00
3:55 AM,14.0,-2.2,49,29.44,-9999.0,WSW,5.8,-,N/A,,Clear,240,2012-12-06 02:55:00
4:00 AM,15,-3,30,,37,WSW,5.8,,,,,240,2012-12-06 03:00:00
4:55 AM,14.0,-2.2,49,29.44,-9999.0,SW,6.9,-,N/A,,Clear,220,2012-12-06 03:55:00
5:55 AM,14.0,-2.2,49,29.44,-9999.0,SW,5.8,-,N/A,,Clear,230,2012-12-06 04:55:00
6:55 AM,14.0,-2.2,49,29.44,-9999.0,Variable,2.3,-,N/A,,Clear,0,2012-12-06 05:55:00
7:00 AM,14,-2,32,,37,,2.3,,,,,,2012-12-06 06:00:00
7:55 AM,14.0,-2.2,49,29.44,-9999.0,NNW,3.5,-,N/A,,Clear,330,2012-12-06 06:55:00
8:55 AM,14.0,-2.2,49,29.47,-9999.0,North,6.9,-,N/A,,Clear,360,2012-12-06 07:55:00
9:55 AM,15.8,-4.0,41,29.50,-9999.0,North,4.6,-,N/A,,Clear,360,2012-12-06 08:55:00
10:00 AM,16,-3,27,,37,North,4.6,,,,,0,2012-12-06 09:00:00
10:55 AM,15.8,-4.0,41,29.50,-9999.0,Calm,Calm,-,N/A,,Clear,360,2012-12-06 09:55:00
11:55 AM,15.8,-4.0,41,29.50,-9999.0,North,9.2,-,N/A,,Clear,360,2012-12-06 10:55:00
12:55 PM,14.0,-2.2,49,29.53,-9999.0,North,9.2,-,N/A,,Clear,360,2012-12-06 11:55:00
1:00 PM,15,-2,30,,37,North,9.2,,,,Scattered Clouds,0,2012-12-06 12:00:00
1:55 PM,14.0,-2.2,49,29.53,-9999.0,North,6.9,-,N/A,,Clear,10,2012-12-06 12:55:00
2:55 PM,14.0,-0.4,53,29.56,-9999.0,North,10.4,-,N/A,,Clear,360,2012-12-06 13:55:00
3:55 PM,12.2,-2.2,53,29.56,-9999.0,North,18.4,-,N/A,,Clear,360,2012-12-06 14:55:00
4:00 PM,13,-3,34,,37,North,18.4,,,,Scattered Clouds,0,2012-12-06 15:00:00
4:55 PM,12.2,-4.0,48,29.56,-9999.0,North,18.4,-,N/A,,Clear,360,2012-12-06 15:55:00
5:55 PM,10.4,-5.8,48,29.56,-9999.0,North,24.2,-,N/A,,Clear,360,2012-12-06 16:55:00
6:55 PM,10.4,-7.6,44,29.56,-9999.0,North,21.9,-,N/A,,Clear,360,2012-12-06 17:55:00
7:00 PM,10,-7,29,,37,North,21.9,,,,,0,2012-12-06 18:00:00
7:55 PM,10.4,-7.6,44,29.59,-9999.0,North,23.0,-,N/A,,Clear,360,2012-12-06 18:55:00
8:55 PM,8.6,-4.0,57,29.62,-9999.0,NNE,17.3,-,N/A,,Clear,20,2012-12-06 19:55:00
9:55 PM,8.6,-5.8,52,29.62,-9999.0,North,15.0,-,N/A,,Clear,360,2012-12-06 20:55:00
10:00 PM,9,-5,36,,37,North,15.0,,,,,0,2012-12-06 21:00:00
10:55 PM,8.6,-5.8,52,29.62,-9999.0,North,17.3,-,N/A,,Clear,360,2012-12-06 21:55:00
11:55 PM,8.6,-4.0,57,29.62,-9999.0,North,15.0,-,N/A,,Clear,360,2012-12-06 22:55:00